| time (UTC) | temp C | wind direction | speed KPH | gust KPH | rain 1hr cm | rain 24hr cm | rain mn cm | humidity % | barometer mb |
| 20260508084516 | 9 | 155 | 0.0 | 0.0 | 0.00 | 0.00 | 0.00 | 25 | 1010.0 |
| 20260508083024 | 10 | 154 | 0.0 | 0.0 | 0.00 | 0.00 | 0.00 | 22 | 1010.1 |
| 20260508081511 | 11 | 155 | 0.0 | 3.2 | 0.00 | 0.00 | 0.00 | 21 | 1010.0 |
| 20260508080008 | 11 | 155 | 0.0 | 1.6 | 0.00 | 0.00 | 0.00 | 21 | 1010.2 |
| 20260508074507 | 10 | 155 | 0.0 | 0.0 | 0.00 | 0.00 | 0.00 | 21 | 1010.3 |
| 20260508073003 | 11 | 155 | 0.0 | 1.6 | 0.00 | 0.00 | 0.00 | 21 | 1010.5 |
| 20260508071600 | 11 | 155 | 0.0 | 3.2 | 0.00 | 0.00 | 0.00 | 20 | 1010.6 |
| 20260508070101 | 12 | 155 | 0.0 | 4.8 | 0.00 | 0.00 | 0.00 | 20 | 1010.7 |
| 20260508064555 | 12 | 155 | 0.0 | 0.0 | 0.00 | 0.00 | 0.00 | 19 | 1010.8 |
| 20260508063125 | 12 | 155 | 0.0 | 0.0 | 0.00 | 0.00 | 0.00 | 18 | 1010.8 |
| 20260508061552 | 13 | 155 | 0.0 | 1.6 | 0.00 | 0.00 | 0.00 | 17 | 1010.6 |
| 20260508060049 | 13 | 155 | 1.6 | 6.4 | 0.00 | 0.00 | 0.00 | 17 | 1010.5 |
| 20260508054546 | 13 | 155 | 0.0 | 0.0 | 0.00 | 0.00 | 0.00 | 17 | 1010.7 |
| 20260508053053 | 14 | 155 | 0.0 | 6.4 | 0.00 | 0.00 | 0.00 | 16 | 1010.5 |
| 20260508051607 | 14 | 155 | 8.0 | 14.5 | 0.00 | 0.00 | 0.00 | 15 | 1010.5 |
| 20260508050046 | 13 | 155 | 1.6 | 6.4 | 0.00 | 0.00 | 0.00 | 18 | 1010.4 |
| 20260508044543 | 13 | 155 | 0.0 | 4.8 | 0.00 | 0.00 | 0.00 | 17 | 1010.5 |
| 20260508043043 | 13 | 155 | 0.0 | 0.0 | 0.00 | 0.00 | 0.00 | 15 | 1010.6 |
| 20260508041545 | 13 | 155 | 0.0 | 0.0 | 0.00 | 0.00 | 0.00 | 14 | 1010.4 |
| 20260508040042 | 13 | 155 | 0.0 | 0.0 | 0.00 | 0.00 | 0.00 | 14 | 1010.3 |
| 20260508034542 | 14 | 155 | 0.0 | 0.0 | 0.00 | 0.00 | 0.00 | 12 | 1010.2 |
| 20260508033048 | 15 | 155 | 0.0 | 0.0 | 0.00 | 0.00 | 0.00 | 11 | 1009.9 |
| 20260508031541 | 15 | 155 | 0.0 | 0.0 | 0.00 | 0.00 | 0.00 | 11 | 1009.7 |
| 20260508030045 | 16 | 155 | 0.0 | 0.0 | 0.00 | 0.00 | 0.00 | 11 | 1009.4 |
| 20260508024540 | 17 | 155 | 0.0 | 0.0 | 0.00 | 0.00 | 0.00 | 10 | 1009.2 |
| 20260508023039 | 18 | 155 | 0.0 | 0.0 | 0.00 | 0.00 | 0.00 | 9 | 1009.0 |
| 20260508021548 | 19 | 155 | 0.0 | 0.0 | 0.00 | 0.00 | 0.00 | 8 | 1008.9 |
| 20260508020038 | 20 | 155 | 0.0 | 0.0 | 0.00 | 0.00 | 0.00 | 7 | 1008.7 |
| 20260508014538 | 21 | 156 | 0.0 | 1.6 | 0.00 | 0.00 | 0.00 | 7 | 1008.6 |
| 20260508013038 | 22 | 155 | 0.0 | 6.4 | 0.00 | 0.00 | 0.00 | 7 | 1008.4 |
| 20260508011546 | 22 | 155 | 3.2 | 6.4 | 0.00 | 0.00 | 0.00 | 9 | 1008.3 |
| 20260508010050 | 22 | 155 | 6.4 | 12.9 | 0.00 | 0.00 | 0.00 | 9 | 1008.1 |
| 20260508004534 | 22 | 155 | 3.2 | 11.3 | 0.00 | 0.00 | 0.00 | 8 | 1008.2 |
| 20260508003032 | 23 | 155 | 4.8 | 11.3 | 0.00 | 0.00 | 0.00 | 8 | 1008.2 |
| 20260508001530 | 23 | 156 | 3.2 | 12.9 | 0.00 | 0.00 | 0.00 | 8 | 1008.1 |
| 20260508000030 | 23 | 155 | 6.4 | 17.7 | 0.00 | 0.00 | 0.00 | 8 | 1008.3 |
| 20260507234526 | 24 | 155 | 6.4 | 14.5 | 0.00 | 0.00 | 0.00 | 8 | 1008.2 |
| 20260507233027 | 24 | 155 | 3.2 | 14.5 | 0.00 | 0.00 | 0.00 | 8 | 1008.6 |
| 20260507231522 | 24 | 155 | 6.4 | 14.5 | 0.00 | 0.00 | 0.00 | 8 | 1008.6 |
| 20260507230027 | 24 | 155 | 4.8 | 12.9 | 0.00 | 0.00 | 0.00 | 8 | 1008.9 |
| 20260507224517 | 24 | 155 | 4.8 | 16.1 | 0.00 | 0.00 | 0.00 | 9 | 1009.1 |
| 20260507223019 | 23 | 155 | 6.4 | 17.7 | 0.00 | 0.00 | 0.00 | 10 | 1009.3 |
| 20260507221511 | 23 | 155 | 6.4 | 14.5 | 0.00 | 0.00 | 0.00 | 10 | 1009.6 |
| 20260507220009 | 23 | 155 | 4.8 | 17.7 | 0.00 | 0.00 | 0.00 | 11 | 1009.8 |
| 20260507214507 | 23 | 155 | 6.4 | 19.3 | 0.00 | 0.00 | 0.00 | 12 | 1010.2 |
| 20260507213005 | 23 | 155 | 4.8 | 16.1 | 0.00 | 0.00 | 0.00 | 12 | 1010.4 |
| 20260507211503 | 23 | 155 | 8.0 | 20.9 | 0.00 | 0.00 | 0.00 | 13 | 1010.8 |
| 20260507210105 | 23 | 155 | 9.7 | 17.7 | 0.00 | 0.00 | 0.00 | 13 | 1010.9 |
| 20260507204556 | 23 | 155 | 4.8 | 14.5 | 0.00 | 0.00 | 0.00 | 14 | 1011.4 |
| 20260507203054 | 22 | 155 | 8.0 | 17.7 | 0.00 | 0.00 | 0.00 | 15 | 1011.7 |
| 20260507201604 | 22 | 155 | 6.4 | 14.5 | 0.00 | 0.00 | 0.00 | 14 | 1012.1 |
| 20260507200100 | 21 | 155 | 3.2 | 17.7 | 0.00 | 0.00 | 0.00 | 16 | 1012.4 |
| 20260507194544 | 21 | 155 | 1.6 | 11.3 | 0.00 | 0.00 | 0.00 | 18 | 1012.8 |
| 20260507193047 | 21 | 155 | 6.4 | 14.5 | 0.00 | 0.00 | 0.00 | 18 | 1013.2 |
| 20260507191539 | 21 | 155 | 1.6 | 9.7 | 0.00 | 0.00 | 0.00 | 18 | 1013.4 |
| 20260507190037 | 20 | 156 | 3.2 | 11.3 | 0.00 | 0.00 | 0.00 | 20 | 1013.8 |
| 20260507184531 | 19 | 155 | 3.2 | 12.9 | 0.00 | 0.00 | 0.00 | 21 | 1014.1 |
| 20260507183036 | 18 | 155 | 8.0 | 12.9 | 0.00 | 0.00 | 0.00 | 22 | 1014.5 |
| 20260507181532 | 18 | 155 | 3.2 | 9.7 | 0.00 | 0.00 | 0.00 | 20 | 1014.7 |
| 20260507180021 | 18 | 155 | 0.0 | 8.0 | 0.00 | 0.00 | 0.00 | 24 | 1015.0 |
| 20260507174521 | 18 | 155 | 0.0 | 4.8 | 0.00 | 0.00 | 0.00 | 25 | 1015.2 |
| 20260507173018 | 17 | 156 | 0.0 | 4.8 | 0.00 | 0.00 | 0.00 | 27 | 1015.6 |
| 20260507171514 | 16 | 156 | 0.0 | 8.0 | 0.00 | 0.00 | 0.00 | 30 | 1016.0 |
| 20260507170012 | 16 | 156 | 0.0 | 6.4 | 0.00 | 0.00 | 0.00 | 31 | 1016.1 |
| 20260507164512 | 16 | 155 | 0.0 | 8.0 | 0.00 | 0.00 | 0.00 | 34 | 1016.2 |
| 20260507163007 | 15 | 155 | 0.0 | 6.4 | 0.00 | 0.00 | 0.00 | 36 | 1016.4 |
| 20260507161504 | 14 | 155 | 0.0 | 8.0 | 0.00 | 0.00 | 0.00 | 40 | 1016.8 |
| 20260507160002 | 13 | 155 | 0.0 | 6.4 | 0.00 | 0.00 | 0.00 | 42 | 1017.0 |
| 20260507154558 | 13 | 155 | 0.0 | 9.7 | 0.00 | 0.00 | 0.00 | 44 | 1017.2 |
| 20260507153111 | 12 | 155 | 0.0 | 8.0 | 0.00 | 0.00 | 0.00 | 46 | 1017.3 |
| 20260507151558 | 11 | 155 | 0.0 | 8.0 | 0.00 | 0.00 | 0.00 | 49 | 1017.4 |
| 20260507150053 | 11 | 155 | 1.6 | 8.0 | 0.00 | 0.00 | 0.00 | 53 | 1017.5 |
| 20260507144544 | 10 | 155 | 0.0 | 8.0 | 0.00 | 0.00 | 0.00 | 57 | 1017.5 |
| 20260507143050 | 8 | 155 | 3.2 | 8.0 | 0.00 | 0.00 | 0.00 | 61 | 1017.7 |
| 20260507141543 | 8 | 155 | 3.2 | 11.3 | 0.00 | 0.00 | 0.00 | 63 | 1017.7 |
| 20260507140046 | 7 | 156 | 3.2 | 11.3 | 0.00 | 0.00 | 0.00 | 65 | 1017.9 |
| 20260507134541 | 7 | 155 | 4.8 | 9.7 | 0.00 | 0.00 | 0.00 | 65 | 1017.8 |
| 20260507133041 | 6 | 155 | 3.2 | 11.3 | 0.00 | 0.00 | 0.00 | 67 | 1017.7 |
| 20260507131540 | 6 | 155 | 1.6 | 8.0 | 0.00 | 0.00 | 0.00 | 70 | 1017.6 |
| 20260507130055 | 5 | 155 | 1.6 | 12.9 | 0.00 | 0.00 | 0.00 | 71 | 1017.6 |
| 20260507124537 | 5 | 156 | 1.6 | 14.5 | 0.00 | 0.00 | 0.00 | 73 | 1017.6 |
| 20260507123040 | 5 | 155 | 1.6 | 11.3 | 0.00 | 0.00 | 0.00 | 72 | 1017.5 |
| 20260507121538 | 4 | 155 | 3.2 | 9.7 | 0.00 | 0.00 | 0.00 | 73 | 1017.4 |
| 20260507120036 | 4 | 155 | 0.0 | 1.6 | 0.00 | 0.00 | 0.00 | 71 | 1017.4 |
| 20260507114528 | 4 | 155 | 0.0 | 4.8 | 0.00 | 0.00 | 0.00 | 70 | 1017.2 |
| 20260507113025 | 4 | 155 | 0.0 | 3.2 | 0.00 | 0.00 | 0.00 | 68 | 1017.3 |
| 20260507111523 | 5 | 155 | 0.0 | 4.8 | 0.00 | 0.00 | 0.00 | 67 | 1017.3 |
| 20260507110025 | 5 | 155 | 0.0 | 3.2 | 0.00 | 0.00 | 0.00 | 67 | 1017.3 |
| 20260507104519 | 5 | 155 | 0.0 | 3.2 | 0.00 | 0.00 | 0.00 | 66 | 1017.4 |
| 20260507103016 | 5 | 155 | 0.0 | 6.4 | 0.00 | 0.00 | 0.00 | 66 | 1017.2 |
| 20260507101515 | 5 | 156 | 0.0 | 3.2 | 0.00 | 0.00 | 0.00 | 65 | 1017.1 |
| 20260507100012 | 5 | 155 | 0.0 | 6.4 | 0.00 | 0.00 | 0.00 | 64 | 1016.9 |
| 20260507094510 | 5 | 155 | 0.0 | 1.6 | 0.00 | 0.00 | 0.00 | 62 | 1017.0 |
| 20260507093008 | 5 | 155 | 0.0 | 0.0 | 0.00 | 0.00 | 0.00 | 56 | 1017.0 |
| 20260507091507 | 5 | 155 | 0.0 | 3.2 | 0.00 | 0.00 | 0.00 | 49 | 1017.0 |
| 20260507090004 | 5 | 155 | 0.0 | 3.2 | 0.00 | 0.00 | 0.00 | 44 | 1017.1 |